sensor_id;sensor_type;location;lat;lon;timestamp;P1;durP1;ratioP1;P2;durP2;ratioP2
61685;SDS011;47592;45.904;8.978;2023-08-17T00:00:17;6.05;;;2.88;;
61685;SDS011;47592;45.904;8.978;2023-08-17T00:02:45;6.43;;;2.92;;
61685;SDS011;47592;45.904;8.978;2023-08-17T00:05:10;5.10;;;2.67;;
61685;SDS011;47592;45.904;8.978;2023-08-17T00:07:36;4.90;;;2.70;;
61685;SDS011;47592;45.904;8.978;2023-08-17T00:10:02;5.10;;;2.90;;
61685;SDS011;47592;45.904;8.978;2023-08-17T00:12:28;4.97;;;2.80;;
61685;SDS011;47592;45.904;8.978;2023-08-17T00:14:53;5.40;;;3.03;;
61685;SDS011;47592;45.904;8.978;2023-08-17T00:17:18;6.15;;;2.60;;
61685;SDS011;47592;45.904;8.978;2023-08-17T00:19:44;6.50;;;2.72;;
61685;SDS011;47592;45.904;8.978;2023-08-17T00:22:09;5.17;;;2.63;;
61685;SDS011;47592;45.904;8.978;2023-08-17T00:24:34;6.30;;;2.50;;
61685;SDS011;47592;45.904;8.978;2023-08-17T00:27:02;4.87;;;2.67;;
61685;SDS011;47592;45.904;8.978;2023-08-17T00:29:30;5.65;;;2.45;;
61685;SDS011;47592;45.904;8.978;2023-08-17T00:31:55;5.80;;;2.75;;
61685;SDS011;47592;45.904;8.978;2023-08-17T00:34:20;4.83;;;2.60;;
61685;SDS011;47592;45.904;8.978;2023-08-17T00:36:45;4.87;;;2.43;;
61685;SDS011;47592;45.904;8.978;2023-08-17T00:39:13;5.47;;;2.80;;
61685;SDS011;47592;45.904;8.978;2023-08-17T00:41:39;5.05;;;2.58;;
61685;SDS011;47592;45.904;8.978;2023-08-17T00:44:04;5.35;;;2.50;;
61685;SDS011;47592;45.904;8.978;2023-08-17T00:46:30;5.03;;;2.58;;
61685;SDS011;47592;45.904;8.978;2023-08-17T00:48:57;5.47;;;2.55;;
61685;SDS011;47592;45.904;8.978;2023-08-17T00:51:23;4.93;;;2.53;;
61685;SDS011;47592;45.904;8.978;2023-08-17T00:53:56;5.00;;;2.80;;
61685;SDS011;47592;45.904;8.978;2023-08-17T00:56:22;5.20;;;2.70;;
61685;SDS011;47592;45.904;8.978;2023-08-17T00:58:48;5.13;;;2.73;;
61685;SDS011;47592;45.904;8.978;2023-08-17T01:01:14;6.05;;;2.50;;
61685;SDS011;47592;45.904;8.978;2023-08-17T01:03:39;5.53;;;2.60;;
61685;SDS011;47592;45.904;8.978;2023-08-17T01:06:05;5.35;;;2.60;;
61685;SDS011;47592;45.904;8.978;2023-08-17T01:08:31;6.72;;;2.40;;
61685;SDS011;47592;45.904;8.978;2023-08-17T01:11:08;6.05;;;2.70;;
61685;SDS011;47592;45.904;8.978;2023-08-17T01:14:01;5.80;;;2.47;;
61685;SDS011;47592;45.904;8.978;2023-08-17T01:16:26;4.38;;;2.40;;
61685;SDS011;47592;45.904;8.978;2023-08-17T01:18:52;5.30;;;2.83;;
61685;SDS011;47592;45.904;8.978;2023-08-17T01:21:21;4.55;;;2.38;;
61685;SDS011;47592;45.904;8.978;2023-08-17T01:23:48;4.40;;;2.20;;
61685;SDS011;47592;45.904;8.978;2023-08-17T01:26:16;4.90;;;2.53;;
61685;SDS011;47592;45.904;8.978;2023-08-17T01:28:45;5.75;;;2.50;;
61685;SDS011;47592;45.904;8.978;2023-08-17T01:38:42;5.20;;;2.90;;
61685;SDS011;47592;45.904;8.978;2023-08-17T01:41:10;4.78;;;2.90;;
61685;SDS011;47592;45.904;8.978;2023-08-17T01:43:41;5.35;;;2.65;;
61685;SDS011;47592;45.904;8.978;2023-08-17T01:46:12;7.05;;;2.58;;
61685;SDS011;47592;45.904;8.978;2023-08-17T01:48:40;5.75;;;2.53;;
61685;SDS011;47592;45.904;8.978;2023-08-17T01:51:08;4.90;;;3.17;;
61685;SDS011;47592;45.904;8.978;2023-08-17T01:53:33;5.18;;;3.03;;
61685;SDS011;47592;45.904;8.978;2023-08-17T01:55:58;7.13;;;3.90;;
61685;SDS011;47592;45.904;8.978;2023-08-17T01:58:23;8.60;;;4.00;;
61685;SDS011;47592;45.904;8.978;2023-08-17T02:00:49;7.87;;;4.40;;
61685;SDS011;47592;45.904;8.978;2023-08-17T02:03:16;8.25;;;4.53;;
61685;SDS011;47592;45.904;8.978;2023-08-17T02:05:44;6.73;;;4.03;;
61685;SDS011;47592;45.904;8.978;2023-08-17T02:08:10;6.43;;;4.00;;
61685;SDS011;47592;45.904;8.978;2023-08-17T02:10:36;8.10;;;4.57;;
61685;SDS011;47592;45.904;8.978;2023-08-17T02:13:01;6.70;;;4.60;;
61685;SDS011;47592;45.904;8.978;2023-08-17T02:15:29;6.63;;;4.03;;
61685;SDS011;47592;45.904;8.978;2023-08-17T02:17:54;6.38;;;3.97;;
61685;SDS011;47592;45.904;8.978;2023-08-17T02:20:19;8.83;;;4.50;;
61685;SDS011;47592;45.904;8.978;2023-08-17T02:22:44;6.00;;;3.97;;
61685;SDS011;47592;45.904;8.978;2023-08-17T02:25:12;7.50;;;4.45;;
61685;SDS011;47592;45.904;8.978;2023-08-17T02:27:40;7.57;;;4.78;;
61685;SDS011;47592;45.904;8.978;2023-08-17T02:30:06;7.57;;;5.17;;
61685;SDS011;47592;45.904;8.978;2023-08-17T02:32:31;7.50;;;5.03;;
61685;SDS011;47592;45.904;8.978;2023-08-17T02:34:56;7.23;;;5.20;;
61685;SDS011;47592;45.904;8.978;2023-08-17T02:37:24;9.93;;;5.07;;
61685;SDS011;47592;45.904;8.978;2023-08-17T02:39:52;8.43;;;5.35;;
61685;SDS011;47592;45.904;8.978;2023-08-17T02:42:17;8.43;;;5.23;;
61685;SDS011;47592;45.904;8.978;2023-08-17T02:44:44;9.15;;;5.10;;
61685;SDS011;47592;45.904;8.978;2023-08-17T02:47:10;8.03;;;5.37;;
61685;SDS011;47592;45.904;8.978;2023-08-17T02:49:35;8.32;;;5.53;;
61685;SDS011;47592;45.904;8.978;2023-08-17T02:52:02;9.05;;;4.80;;
61685;SDS011;47592;45.904;8.978;2023-08-17T02:54:28;7.80;;;5.07;;
61685;SDS011;47592;45.904;8.978;2023-08-17T02:56:53;8.10;;;5.83;;
61685;SDS011;47592;45.904;8.978;2023-08-17T02:59:18;9.87;;;5.83;;
61685;SDS011;47592;45.904;8.978;2023-08-17T03:01:44;10.27;;;5.47;;
61685;SDS011;47592;45.904;8.978;2023-08-17T03:04:10;9.07;;;5.70;;
61685;SDS011;47592;45.904;8.978;2023-08-17T03:06:35;9.27;;;6.43;;
61685;SDS011;47592;45.904;8.978;2023-08-17T03:09:02;8.55;;;5.75;;
61685;SDS011;47592;45.904;8.978;2023-08-17T03:11:30;7.82;;;6.00;;
61685;SDS011;47592;45.904;8.978;2023-08-17T03:13:55;7.82;;;5.38;;
61685;SDS011;47592;45.904;8.978;2023-08-17T03:16:25;7.75;;;5.10;;
61685;SDS011;47592;45.904;8.978;2023-08-17T03:18:50;9.68;;;5.82;;
61685;SDS011;47592;45.904;8.978;2023-08-17T03:21:16;8.38;;;5.35;;
61685;SDS011;47592;45.904;8.978;2023-08-17T03:23:43;8.55;;;5.90;;
61685;SDS011;47592;45.904;8.978;2023-08-17T03:26:11;8.57;;;5.72;;
61685;SDS011;47592;45.904;8.978;2023-08-17T03:28:36;8.43;;;5.35;;
61685;SDS011;47592;45.904;8.978;2023-08-17T03:31:02;7.10;;;5.05;;
61685;SDS011;47592;45.904;8.978;2023-08-17T03:33:30;11.18;;;5.20;;
61685;SDS011;47592;45.904;8.978;2023-08-17T03:35:55;8.82;;;5.47;;
61685;SDS011;47592;45.904;8.978;2023-08-17T03:38:20;9.53;;;5.20;;
61685;SDS011;47592;45.904;8.978;2023-08-17T03:40:48;8.07;;;4.90;;
61685;SDS011;47592;45.904;8.978;2023-08-17T03:43:14;7.72;;;4.68;;
61685;SDS011;47592;45.904;8.978;2023-08-17T03:45:40;7.93;;;5.07;;
61685;SDS011;47592;45.904;8.978;2023-08-17T03:48:06;6.70;;;4.80;;
61685;SDS011;47592;45.904;8.978;2023-08-17T03:50:32;7.63;;;4.75;;
61685;SDS011;47592;45.904;8.978;2023-08-17T03:52:57;8.52;;;5.00;;
61685;SDS011;47592;45.904;8.978;2023-08-17T03:55:25;7.77;;;5.10;;
61685;SDS011;47592;45.904;8.978;2023-08-17T03:57:50;7.85;;;5.53;;
61685;SDS011;47592;45.904;8.978;2023-08-17T04:00:15;10.27;;;5.30;;
61685;SDS011;47592;45.904;8.978;2023-08-17T04:02:40;9.97;;;5.37;;
61685;SDS011;47592;45.904;8.978;2023-08-17T04:05:08;8.13;;;5.43;;
61685;SDS011;47592;45.904;8.978;2023-08-17T04:07:33;7.57;;;5.22;;
61685;SDS011;47592;45.904;8.978;2023-08-17T04:10:01;8.40;;;5.03;;
61685;SDS011;47592;45.904;8.978;2023-08-17T04:12:26;7.60;;;4.88;;
61685;SDS011;47592;45.904;8.978;2023-08-17T04:14:54;6.87;;;4.90;;
61685;SDS011;47592;45.904;8.978;2023-08-17T04:17:22;7.95;;;5.10;;
61685;SDS011;47592;45.904;8.978;2023-08-17T04:19:47;8.95;;;5.10;;
61685;SDS011;47592;45.904;8.978;2023-08-17T04:22:15;7.37;;;5.10;;
61685;SDS011;47592;45.904;8.978;2023-08-17T04:24:40;6.72;;;5.00;;
61685;SDS011;47592;45.904;8.978;2023-08-17T04:27:05;8.20;;;4.80;;
61685;SDS011;47592;45.904;8.978;2023-08-17T04:29:31;6.67;;;4.20;;
61685;SDS011;47592;45.904;8.978;2023-08-17T04:31:56;6.22;;;4.38;;
61685;SDS011;47592;45.904;8.978;2023-08-17T04:34:22;8.27;;;4.53;;
61685;SDS011;47592;45.904;8.978;2023-08-17T04:36:47;8.43;;;5.10;;
61685;SDS011;47592;45.904;8.978;2023-08-17T04:39:12;6.90;;;4.83;;
61685;SDS011;47592;45.904;8.978;2023-08-17T04:41:37;7.88;;;4.90;;
61685;SDS011;47592;45.904;8.978;2023-08-17T04:44:03;6.57;;;4.35;;
61685;SDS011;47592;45.904;8.978;2023-08-17T04:46:29;6.63;;;4.38;;
61685;SDS011;47592;45.904;8.978;2023-08-17T04:48:54;11.50;;;5.47;;
61685;SDS011;47592;45.904;8.978;2023-08-17T04:51:19;7.30;;;4.55;;
61685;SDS011;47592;45.904;8.978;2023-08-17T04:53:45;6.73;;;4.67;;
61685;SDS011;47592;45.904;8.978;2023-08-17T04:56:12;9.63;;;5.20;;
61685;SDS011;47592;45.904;8.978;2023-08-17T04:58:38;6.75;;;4.75;;
61685;SDS011;47592;45.904;8.978;2023-08-17T05:01:03;6.20;;;4.47;;
61685;SDS011;47592;45.904;8.978;2023-08-17T05:03:28;6.13;;;3.97;;
61685;SDS011;47592;45.904;8.978;2023-08-17T05:05:53;9.23;;;4.73;;
61685;SDS011;47592;45.904;8.978;2023-08-17T05:08:21;6.95;;;4.47;;
61685;SDS011;47592;45.904;8.978;2023-08-17T05:10:49;7.78;;;4.90;;
61685;SDS011;47592;45.904;8.978;2023-08-17T05:13:15;7.10;;;4.30;;
61685;SDS011;47592;45.904;8.978;2023-08-17T05:15:42;7.22;;;4.90;;
61685;SDS011;47592;45.904;8.978;2023-08-17T05:18:08;6.63;;;4.90;;
61685;SDS011;47592;45.904;8.978;2023-08-17T05:20:33;9.03;;;5.40;;
61685;SDS011;47592;45.904;8.978;2023-08-17T05:22:58;8.03;;;5.37;;
61685;SDS011;47592;45.904;8.978;2023-08-17T05:25:23;6.30;;;4.80;;
61685;SDS011;47592;45.904;8.978;2023-08-17T05:27:51;9.75;;;5.07;;
61685;SDS011;47592;45.904;8.978;2023-08-17T05:30:16;7.47;;;4.90;;
61685;SDS011;47592;45.904;8.978;2023-08-17T05:32:41;8.23;;;4.85;;
61685;SDS011;47592;45.904;8.978;2023-08-17T05:35:07;7.50;;;5.13;;
61685;SDS011;47592;45.904;8.978;2023-08-17T05:37:32;7.80;;;5.47;;
61685;SDS011;47592;45.904;8.978;2023-08-17T05:39:57;7.22;;;5.13;;
61685;SDS011;47592;45.904;8.978;2023-08-17T05:42:23;7.30;;;5.05;;
61685;SDS011;47592;45.904;8.978;2023-08-17T05:44:53;7.10;;;5.20;;
61685;SDS011;47592;45.904;8.978;2023-08-17T05:47:18;6.88;;;4.82;;
61685;SDS011;47592;45.904;8.978;2023-08-17T05:49:44;6.30;;;4.47;;
61685;SDS011;47592;45.904;8.978;2023-08-17T05:52:09;8.27;;;5.30;;
61685;SDS011;47592;45.904;8.978;2023-08-17T05:54:34;6.87;;;4.40;;
61685;SDS011;47592;45.904;8.978;2023-08-17T05:57:00;8.67;;;5.10;;
61685;SDS011;47592;45.904;8.978;2023-08-17T05:59:25;7.00;;;4.87;;
61685;SDS011;47592;45.904;8.978;2023-08-17T06:01:53;7.63;;;4.55;;
61685;SDS011;47592;45.904;8.978;2023-08-17T06:04:18;7.13;;;4.90;;
61685;SDS011;47592;45.904;8.978;2023-08-17T06:06:44;7.70;;;4.68;;
61685;SDS011;47592;45.904;8.978;2023-08-17T06:09:10;7.63;;;4.63;;
61685;SDS011;47592;45.904;8.978;2023-08-17T06:11:35;7.23;;;4.53;;
61685;SDS011;47592;45.904;8.978;2023-08-17T06:14:02;6.17;;;4.57;;
61685;SDS011;47592;45.904;8.978;2023-08-17T06:16:28;6.22;;;4.60;;
61685;SDS011;47592;45.904;8.978;2023-08-17T06:18:53;7.03;;;4.90;;
61685;SDS011;47592;45.904;8.978;2023-08-17T06:21:18;7.00;;;4.50;;
61685;SDS011;47592;45.904;8.978;2023-08-17T06:23:46;7.43;;;4.82;;
61685;SDS011;47592;45.904;8.978;2023-08-17T06:26:11;7.30;;;4.60;;
61685;SDS011;47592;45.904;8.978;2023-08-17T06:28:36;7.90;;;4.73;;
61685;SDS011;47592;45.904;8.978;2023-08-17T06:31:02;6.83;;;5.10;;
61685;SDS011;47592;45.904;8.978;2023-08-17T06:33:27;7.93;;;4.85;;
61685;SDS011;47592;45.904;8.978;2023-08-17T06:35:52;7.80;;;4.68;;
61685;SDS011;47592;45.904;8.978;2023-08-17T06:38:17;7.18;;;4.53;;
61685;SDS011;47592;45.904;8.978;2023-08-17T06:40:47;7.25;;;5.15;;
61685;SDS011;47592;45.904;8.978;2023-08-17T06:43:15;7.55;;;5.15;;
61685;SDS011;47592;45.904;8.978;2023-08-17T06:45:41;7.13;;;4.70;;
61685;SDS011;47592;45.904;8.978;2023-08-17T06:48:06;6.60;;;4.70;;
61685;SDS011;47592;45.904;8.978;2023-08-17T06:50:31;7.13;;;4.83;;
61685;SDS011;47592;45.904;8.978;2023-08-17T06:53:00;6.25;;;4.60;;
61685;SDS011;47592;45.904;8.978;2023-08-17T06:55:26;8.55;;;4.50;;
61685;SDS011;47592;45.904;8.978;2023-08-17T06:57:51;6.43;;;4.53;;
61685;SDS011;47592;45.904;8.978;2023-08-17T07:00:17;6.65;;;4.38;;
61685;SDS011;47592;45.904;8.978;2023-08-17T07:02:45;7.25;;;4.55;;
61685;SDS011;47592;45.904;8.978;2023-08-17T07:05:13;6.50;;;4.45;;
61685;SDS011;47592;45.904;8.978;2023-08-17T07:07:38;6.13;;;4.30;;
61685;SDS011;47592;45.904;8.978;2023-08-17T07:10:04;6.70;;;4.40;;
61685;SDS011;47592;45.904;8.978;2023-08-17T07:12:32;7.03;;;4.47;;
61685;SDS011;47592;45.904;8.978;2023-08-17T07:14:57;7.55;;;4.45;;
61685;SDS011;47592;45.904;8.978;2023-08-17T07:17:22;6.78;;;4.45;;
61685;SDS011;47592;45.904;8.978;2023-08-17T07:19:50;7.30;;;4.88;;
61685;SDS011;47592;45.904;8.978;2023-08-17T07:22:15;7.28;;;4.63;;
61685;SDS011;47592;45.904;8.978;2023-08-17T07:24:43;5.88;;;4.43;;
61685;SDS011;47592;45.904;8.978;2023-08-17T07:27:09;6.40;;;4.17;;
61685;SDS011;47592;45.904;8.978;2023-08-17T07:29:34;7.50;;;4.43;;
61685;SDS011;47592;45.904;8.978;2023-08-17T07:31:59;8.70;;;5.70;;
61685;SDS011;47592;45.904;8.978;2023-08-17T07:34:27;6.57;;;4.22;;
61685;SDS011;47592;45.904;8.978;2023-08-17T07:36:52;7.55;;;4.72;;
61685;SDS011;47592;45.904;8.978;2023-08-17T07:39:18;8.40;;;4.50;;
61685;SDS011;47592;45.904;8.978;2023-08-17T07:41:45;6.57;;;4.40;;
61685;SDS011;47592;45.904;8.978;2023-08-17T07:44:10;7.27;;;4.53;;
61685;SDS011;47592;45.904;8.978;2023-08-17T07:46:38;6.75;;;4.70;;
61685;SDS011;47592;45.904;8.978;2023-08-17T07:49:05;6.70;;;4.30;;
61685;SDS011;47592;45.904;8.978;2023-08-17T07:51:31;6.43;;;4.22;;
61685;SDS011;47592;45.904;8.978;2023-08-17T07:54:00;7.22;;;4.32;;
61685;SDS011;47592;45.904;8.978;2023-08-17T07:56:25;8.82;;;4.68;;
61685;SDS011;47592;45.904;8.978;2023-08-17T07:58:55;6.63;;;4.57;;
61685;SDS011;47592;45.904;8.978;2023-08-17T08:01:20;8.80;;;4.60;;
61685;SDS011;47592;45.904;8.978;2023-08-17T08:03:46;7.45;;;4.50;;
61685;SDS011;47592;45.904;8.978;2023-08-17T08:06:13;5.72;;;4.05;;
61685;SDS011;47592;45.904;8.978;2023-08-17T08:08:41;5.53;;;4.23;;
61685;SDS011;47592;45.904;8.978;2023-08-17T08:11:06;6.05;;;4.30;;
61685;SDS011;47592;45.904;8.978;2023-08-17T08:13:31;6.85;;;4.40;;
61685;SDS011;47592;45.904;8.978;2023-08-17T08:15:58;7.68;;;4.22;;
61685;SDS011;47592;45.904;8.978;2023-08-17T08:18:23;6.43;;;4.05;;
61685;SDS011;47592;45.904;8.978;2023-08-17T08:20:49;5.90;;;4.20;;
61685;SDS011;47592;45.904;8.978;2023-08-17T08:23:14;6.57;;;3.57;;
61685;SDS011;47592;45.904;8.978;2023-08-17T08:25:39;5.37;;;3.80;;
61685;SDS011;47592;45.904;8.978;2023-08-17T08:28:04;6.23;;;3.77;;
61685;SDS011;47592;45.904;8.978;2023-08-17T08:30:30;6.32;;;3.85;;
61685;SDS011;47592;45.904;8.978;2023-08-17T08:32:55;5.90;;;3.70;;
61685;SDS011;47592;45.904;8.978;2023-08-17T08:35:23;5.95;;;3.70;;
61685;SDS011;47592;45.904;8.978;2023-08-17T08:37:49;5.45;;;3.50;;
61685;SDS011;47592;45.904;8.978;2023-08-17T08:40:14;5.65;;;3.50;;
61685;SDS011;47592;45.904;8.978;2023-08-17T08:42:44;5.85;;;3.35;;
61685;SDS011;47592;45.904;8.978;2023-08-17T08:45:11;7.88;;;3.33;;
61685;SDS011;47592;45.904;8.978;2023-08-17T08:47:39;5.35;;;3.35;;
61685;SDS011;47592;45.904;8.978;2023-08-17T08:50:09;6.28;;;3.88;;
61685;SDS011;47592;45.904;8.978;2023-08-17T08:52:53;7.32;;;3.80;;
61685;SDS011;47592;45.904;8.978;2023-08-17T08:55:26;5.93;;;3.47;;
61685;SDS011;47592;45.904;8.978;2023-08-17T08:57:52;6.13;;;3.60;;
61685;SDS011;47592;45.904;8.978;2023-08-17T09:00:19;5.55;;;3.50;;
61685;SDS011;47592;45.904;8.978;2023-08-17T09:02:45;6.20;;;4.10;;
61685;SDS011;47592;45.904;8.978;2023-08-17T09:05:11;7.47;;;4.30;;
61685;SDS011;47592;45.904;8.978;2023-08-17T09:07:36;9.70;;;6.60;;
61685;SDS011;47592;45.904;8.978;2023-08-17T09:10:02;7.45;;;3.97;;
61685;SDS011;47592;45.904;8.978;2023-08-17T09:12:28;7.57;;;3.70;;
61685;SDS011;47592;45.904;8.978;2023-08-17T09:14:57;6.63;;;3.53;;
61685;SDS011;47592;45.904;8.978;2023-08-17T09:17:22;6.40;;;3.78;;
61685;SDS011;47592;45.904;8.978;2023-08-17T09:19:48;6.43;;;3.70;;
61685;SDS011;47592;45.904;8.978;2023-08-17T09:22:13;5.57;;;3.30;;
61685;SDS011;47592;45.904;8.978;2023-08-17T09:24:41;5.35;;;3.40;;
61685;SDS011;47592;45.904;8.978;2023-08-17T09:27:09;5.82;;;3.25;;
61685;SDS011;47592;45.904;8.978;2023-08-17T09:29:37;5.10;;;3.28;;
61685;SDS011;47592;45.904;8.978;2023-08-17T09:32:06;7.00;;;3.08;;
61685;SDS011;47592;45.904;8.978;2023-08-17T09:34:35;5.07;;;2.92;;
61685;SDS011;47592;45.904;8.978;2023-08-17T09:37:03;5.00;;;3.10;;
61685;SDS011;47592;45.904;8.978;2023-08-17T09:39:31;5.10;;;2.90;;
61685;SDS011;47592;45.904;8.978;2023-08-17T09:41:57;5.70;;;2.70;;
61685;SDS011;47592;45.904;8.978;2023-08-17T09:44:22;4.97;;;2.75;;
61685;SDS011;47592;45.904;8.978;2023-08-17T09:46:47;4.97;;;2.70;;
61685;SDS011;47592;45.904;8.978;2023-08-17T09:49:13;5.95;;;2.55;;
61685;SDS011;47592;45.904;8.978;2023-08-17T09:51:43;4.50;;;2.95;;
61685;SDS011;47592;45.904;8.978;2023-08-17T09:54:16;5.00;;;2.55;;
61685;SDS011;47592;45.904;8.978;2023-08-17T09:56:43;5.15;;;3.00;;
61685;SDS011;47592;45.904;8.978;2023-08-17T09:59:09;7.82;;;2.83;;
61685;SDS011;47592;45.904;8.978;2023-08-17T10:01:34;5.93;;;3.17;;
61685;SDS011;47592;45.904;8.978;2023-08-17T10:03:59;6.28;;;3.20;;
61685;SDS011;47592;45.904;8.978;2023-08-17T10:06:28;5.30;;;3.10;;
61685;SDS011;47592;45.904;8.978;2023-08-17T10:08:56;7.28;;;3.60;;
61685;SDS011;47592;45.904;8.978;2023-08-17T10:11:24;6.13;;;3.40;;
61685;SDS011;47592;45.904;8.978;2023-08-17T10:13:59;5.22;;;2.92;;
61685;SDS011;47592;45.904;8.978;2023-08-17T10:16:59;6.40;;;3.15;;
61685;SDS011;47592;45.904;8.978;2023-08-17T10:22:00;6.25;;;3.60;;
61685;SDS011;47592;45.904;8.978;2023-08-17T10:24:28;6.05;;;3.20;;
61685;SDS011;47592;45.904;8.978;2023-08-17T10:26:55;6.18;;;3.30;;
61685;SDS011;47592;45.904;8.978;2023-08-17T10:29:22;7.40;;;3.67;;
61685;SDS011;47592;45.904;8.978;2023-08-17T10:31:50;7.03;;;3.63;;
61685;SDS011;47592;45.904;8.978;2023-08-17T10:34:18;8.50;;;3.50;;
61685;SDS011;47592;45.904;8.978;2023-08-17T10:36:44;7.22;;;3.60;;
61685;SDS011;47592;45.904;8.978;2023-08-17T10:41:48;6.00;;;3.50;;
61685;SDS011;47592;45.904;8.978;2023-08-17T10:44:13;5.22;;;3.55;;
61685;SDS011;47592;45.904;8.978;2023-08-17T10:46:41;5.70;;;3.60;;
61685;SDS011;47592;45.904;8.978;2023-08-17T10:49:30;5.55;;;3.50;;
61685;SDS011;47592;45.904;8.978;2023-08-17T10:52:02;7.35;;;3.25;;
61685;SDS011;47592;45.904;8.978;2023-08-17T10:54:35;5.85;;;3.50;;
61685;SDS011;47592;45.904;8.978;2023-08-17T10:57:21;8.95;;;3.58;;
61685;SDS011;47592;45.904;8.978;2023-08-17T10:59:46;4.78;;;3.15;;
61685;SDS011;47592;45.904;8.978;2023-08-17T11:02:13;6.27;;;3.50;;
61685;SDS011;47592;45.904;8.978;2023-08-17T11:04:39;5.60;;;3.40;;
61685;SDS011;47592;45.904;8.978;2023-08-17T11:07:04;5.33;;;3.00;;
61685;SDS011;47592;45.904;8.978;2023-08-17T11:09:38;5.60;;;3.40;;
61685;SDS011;47592;45.904;8.978;2023-08-17T11:12:06;6.72;;;3.47;;
61685;SDS011;47592;45.904;8.978;2023-08-17T11:14:49;5.30;;;3.40;;
61685;SDS011;47592;45.904;8.978;2023-08-17T11:17:14;5.77;;;3.60;;
61685;SDS011;47592;45.904;8.978;2023-08-17T11:19:40;5.57;;;3.47;;
61685;SDS011;47592;45.904;8.978;2023-08-17T11:22:05;5.53;;;3.50;;
61685;SDS011;47592;45.904;8.978;2023-08-17T11:24:33;8.63;;;3.50;;
61685;SDS011;47592;45.904;8.978;2023-08-17T11:26:58;5.38;;;3.45;;
61685;SDS011;47592;45.904;8.978;2023-08-17T11:29:30;5.72;;;3.80;;
61685;SDS011;47592;45.904;8.978;2023-08-17T11:32:01;5.35;;;3.50;;
61685;SDS011;47592;45.904;8.978;2023-08-17T11:34:29;5.60;;;3.70;;
61685;SDS011;47592;45.904;8.978;2023-08-17T11:36:56;5.20;;;3.33;;
61685;SDS011;47592;45.904;8.978;2023-08-17T11:39:22;5.70;;;3.72;;
61685;SDS011;47592;45.904;8.978;2023-08-17T11:41:48;7.10;;;3.90;;
61685;SDS011;47592;45.904;8.978;2023-08-17T11:44:13;5.95;;;3.65;;
61685;SDS011;47592;45.904;8.978;2023-08-17T11:46:39;5.20;;;3.55;;
61685;SDS011;47592;45.904;8.978;2023-08-17T11:49:05;5.83;;;3.47;;
61685;SDS011;47592;45.904;8.978;2023-08-17T11:51:30;6.63;;;4.03;;
61685;SDS011;47592;45.904;8.978;2023-08-17T11:53:59;7.38;;;3.72;;
61685;SDS011;47592;45.904;8.978;2023-08-17T11:56:28;5.88;;;3.58;;
61685;SDS011;47592;45.904;8.978;2023-08-17T11:58:56;9.32;;;3.63;;
61685;SDS011;47592;45.904;8.978;2023-08-17T12:01:21;6.90;;;3.53;;
61685;SDS011;47592;45.904;8.978;2023-08-17T12:03:49;6.13;;;3.63;;
61685;SDS011;47592;45.904;8.978;2023-08-17T12:06:15;5.78;;;3.55;;
61685;SDS011;47592;45.904;8.978;2023-08-17T12:08:45;7.60;;;3.90;;
61685;SDS011;47592;45.904;8.978;2023-08-17T12:11:10;5.90;;;3.72;;
61685;SDS011;47592;45.904;8.978;2023-08-17T12:13:38;5.07;;;3.47;;
61685;SDS011;47592;45.904;8.978;2023-08-17T12:16:03;5.45;;;3.80;;
61685;SDS011;47592;45.904;8.978;2023-08-17T12:18:31;5.40;;;3.60;;
61685;SDS011;47592;45.904;8.978;2023-08-17T12:21:00;5.57;;;3.38;;
61685;SDS011;47592;45.904;8.978;2023-08-17T12:23:25;4.95;;;3.40;;
61685;SDS011;47592;45.904;8.978;2023-08-17T12:25:54;7.03;;;3.47;;
61685;SDS011;47592;45.904;8.978;2023-08-17T12:28:19;10.18;;;3.60;;
61685;SDS011;47592;45.904;8.978;2023-08-17T12:30:45;6.83;;;3.70;;
61685;SDS011;47592;45.904;8.978;2023-08-17T12:33:10;6.13;;;3.77;;
61685;SDS011;47592;45.904;8.978;2023-08-17T12:35:35;6.20;;;3.40;;
61685;SDS011;47592;45.904;8.978;2023-08-17T12:38:01;5.23;;;3.63;;
61685;SDS011;47592;45.904;8.978;2023-08-17T12:40:26;5.20;;;3.40;;
61685;SDS011;47592;45.904;8.978;2023-08-17T12:42:53;5.72;;;3.75;;
61685;SDS011;47592;45.904;8.978;2023-08-17T12:45:18;5.47;;;3.53;;
61685;SDS011;47592;45.904;8.978;2023-08-17T12:47:44;6.23;;;3.70;;
61685;SDS011;47592;45.904;8.978;2023-08-17T12:50:09;6.27;;;3.93;;
61685;SDS011;47592;45.904;8.978;2023-08-17T12:52:37;7.47;;;3.80;;
61685;SDS011;47592;45.904;8.978;2023-08-17T12:55:02;5.88;;;4.03;;
61685;SDS011;47592;45.904;8.978;2023-08-17T12:57:28;5.63;;;4.00;;
61685;SDS011;47592;45.904;8.978;2023-08-17T12:59:53;6.13;;;3.57;;
61685;SDS011;47592;45.904;8.978;2023-08-17T13:02:19;6.60;;;4.13;;
61685;SDS011;47592;45.904;8.978;2023-08-17T13:04:45;6.45;;;4.10;;
61685;SDS011;47592;45.904;8.978;2023-08-17T13:07:10;5.30;;;3.90;;
61685;SDS011;47592;45.904;8.978;2023-08-17T13:09:35;6.90;;;4.07;;
61685;SDS011;47592;45.904;8.978;2023-08-17T13:12:00;5.97;;;4.18;;
61685;SDS011;47592;45.904;8.978;2023-08-17T13:14:28;6.07;;;4.17;;
61685;SDS011;47592;45.904;8.978;2023-08-17T13:16:53;6.05;;;4.05;;
61685;SDS011;47592;45.904;8.978;2023-08-17T13:19:21;7.00;;;3.95;;
61685;SDS011;47592;45.904;8.978;2023-08-17T13:21:46;8.50;;;4.23;;
61685;SDS011;47592;45.904;8.978;2023-08-17T13:24:14;6.68;;;3.95;;
61685;SDS011;47592;45.904;8.978;2023-08-17T13:26:39;6.90;;;3.90;;
61685;SDS011;47592;45.904;8.978;2023-08-17T13:29:07;6.72;;;3.95;;
61685;SDS011;47592;45.904;8.978;2023-08-17T13:31:34;8.40;;;4.30;;
61685;SDS011;47592;45.904;8.978;2023-08-17T13:34:02;6.50;;;4.13;;
61685;SDS011;47592;45.904;8.978;2023-08-17T13:36:28;6.93;;;4.13;;
61685;SDS011;47592;45.904;8.978;2023-08-17T13:38:53;9.43;;;4.90;;
61685;SDS011;47592;45.904;8.978;2023-08-17T13:41:19;8.15;;;5.13;;
61685;SDS011;47592;45.904;8.978;2023-08-17T13:43:44;7.57;;;4.70;;
61685;SDS011;47592;45.904;8.978;2023-08-17T13:46:12;7.75;;;4.55;;
61685;SDS011;47592;45.904;8.978;2023-08-17T13:48:39;6.78;;;4.50;;
61685;SDS011;47592;45.904;8.978;2023-08-17T13:51:05;7.88;;;4.80;;
61685;SDS011;47592;45.904;8.978;2023-08-17T13:53:30;7.57;;;4.70;;
61685;SDS011;47592;45.904;8.978;2023-08-17T13:55:55;6.70;;;4.87;;
61685;SDS011;47592;45.904;8.978;2023-08-17T13:58:23;6.47;;;5.00;;
61685;SDS011;47592;45.904;8.978;2023-08-17T14:00:52;6.30;;;4.37;;
61685;SDS011;47592;45.904;8.978;2023-08-17T14:03:18;9.48;;;5.00;;
61685;SDS011;47592;45.904;8.978;2023-08-17T14:05:46;6.68;;;4.93;;
61685;SDS011;47592;45.904;8.978;2023-08-17T14:08:11;7.27;;;5.13;;
61685;SDS011;47592;45.904;8.978;2023-08-17T14:10:38;7.32;;;5.38;;
61685;SDS011;47592;45.904;8.978;2023-08-17T14:13:04;8.15;;;5.38;;
61685;SDS011;47592;45.904;8.978;2023-08-17T14:15:29;6.88;;;5.18;;
61685;SDS011;47592;45.904;8.978;2023-08-17T14:17:55;6.00;;;4.40;;
61685;SDS011;47592;45.904;8.978;2023-08-17T14:20:20;6.83;;;4.97;;
61685;SDS011;47592;45.904;8.978;2023-08-17T14:22:45;8.30;;;4.60;;
61685;SDS011;47592;45.904;8.978;2023-08-17T14:25:10;6.32;;;4.60;;
61685;SDS011;47592;45.904;8.978;2023-08-17T14:27:36;7.40;;;4.70;;
61685;SDS011;47592;45.904;8.978;2023-08-17T14:30:01;7.03;;;5.13;;
61685;SDS011;47592;45.904;8.978;2023-08-17T14:32:27;6.53;;;5.20;;
61685;SDS011;47592;45.904;8.978;2023-08-17T14:34:53;6.68;;;5.25;;
61685;SDS011;47592;45.904;8.978;2023-08-17T14:37:21;8.53;;;5.30;;
61685;SDS011;47592;45.904;8.978;2023-08-17T14:39:46;8.23;;;5.60;;
61685;SDS011;47592;45.904;8.978;2023-08-17T14:42:11;7.87;;;5.93;;
61685;SDS011;47592;45.904;8.978;2023-08-17T14:44:39;9.25;;;5.38;;
61685;SDS011;47592;45.904;8.978;2023-08-17T14:47:04;7.27;;;5.50;;
61685;SDS011;47592;45.904;8.978;2023-08-17T14:49:30;7.90;;;6.05;;
61685;SDS011;47592;45.904;8.978;2023-08-17T14:51:57;7.35;;;5.05;;
61685;SDS011;47592;45.904;8.978;2023-08-17T14:54:25;5.70;;;4.83;;
61685;SDS011;47592;45.904;8.978;2023-08-17T14:56:51;6.85;;;4.97;;